Terminal Aerodrome Forecast
Issued by NWS Portland, ME

Current Version | Previous Version | Text Only | Print | Product List | Glossary On
Versions: 1 2 3 4 5 6 7 8 9 10 11 12 13 14 15 16 17 18 19 20 21 22 23 24 25 26 27 28 29 30 31 32 33
000 FTUS41 KGYX 301300 AAA TAFPWM TAF AMD KPWM 301302Z 3013/3112 VRB04KT P6SM SCT008 BKN050 TEMPO 3013/3014 BKN006 FM301500 11006KT P6SM VCSH BKN050 FM310000 14003KT P6SM BKN250=

USA.gov is the U.S. government's official web portal to all federal, state and local government web resources and services.